Delavan, MN

7:30 PM CDT on September 23, 2014 (GMT -0500)
Golly Farms 2 | Change Station
CLOSE
Current Station
Personal Weather Station
Location: Winnebago, MN
Elevation: 1096 ft
Nearby Weather Stations

Elev 1096 ft 43.75 °N, 94.17 °W | Updated 1 minute ago

Overcast
Overcast
62.0 °F
Feels Like 62.0 °F
N
5.0
Wind Variable Wind from SE
Gusts 14.0 mph

Today
High -- | Low -- °F
--% Chance of Precip.
Yesterday
High -- | Low -- °F
Precip. -- in
7:04 AM 7:11 PM
Waning Crescent, 0% visible
Pressure 30.11 in
Visibility 10.0 miles
Clouds Overcast 6000 ft
Dew Point 54 °F
Humidity 75%
Rainfall 0.00 in
Snow Depth Not available.
UV 0 out of 12
Pollen 3.40 out of 12
Air Quality Not available.
Flu Activity Not available.
METAR KFRM 240015Z AUTO 14011KT 10SM OVC060 16/11 A3011 RMK AO1

More Conditions Fewer Conditions

Pressure 30.11 in
Visibility 10.0 miles
Clouds Overcast 6000 ft
Dew Point 54 °F
Humidity 75%
Rainfall 0.00 in
Snow Depth Not available.
UV 0 out of 12
Pollen 3.40 out of 12
Air Quality Not available.
Flu Activity Not available.
METAR KFRM 240015Z AUTO 14011KT 10SM OVC060 16/11 A3011 RMK AO1

More Conditions Fewer Conditions

10-Day Weather Forecast

Almanac

Astronomy

Sep. 23, 2014 Rise Set
Actual Time 7:04 AM CDT 7:11 PM CDT
Civil Twilight 6:35 AM CDT 7:40 PM CDT
Nautical Twilight 6:02 AM CDT 8:13 PM CDT
Astronomical Twilight 5:27 AM CDT 8:47 PM CDT
Moon 6:29 AM CDT (9/23) 6:50 PM CDT (9/23)
Length of Visible Light 13h 04m
Length of Day
12h 07m
Tomorrow will be 2m 59s shorter.
Waning Crescent, 0% of the Moon is Illuminated
Today
Waning Crescent
Sep 24
New
Oct 1
First Quarter
Oct 8
Full
Oct 15
Last Quarter

Today's Extremes

State Highs State Lows

Community

WunderPhotos

Upload Photos

1,755,832 photos uploaded!

WunderBlogs® & News

Nearby

Snow Depth

Station Depth Elevation
No new snow has been reported.

Earthquake Activity

City Distance Mag. Time & Date
No recent earthquake activity has been reported nearby.
Minimum magnitude displayed is 2.5.

Coastal Water Temperatures

Place Temperature
No Stations Reporting

Nearby Weather Stations